Ana Sayfa
METAR-TAF:

METAR-TAF

Havaalanları :

Metlakatla, Alaska, Amerika Birleşik Devletleri

Enlem: 55-07-52N, Boylam: 131-34-41W, yükseklik: 0 m

Güncel hava durumu gözlemi

Rapor saat 00:56 UTC de 46 dakika önce yapıldı.
Rüzgar güney/güneydoğudan 7 kt
Sıcaklık 16°C
Nem 94%
Basınç 1015 hPa
Görüş mesafesi: 6.4 km
yağmur, Pus

METAR: PAMM 180056Z AUTO 15007KT 4SM RA BR 16/15 A2996 RMK AO2 SLP239 P0021 T01610150 $

Saat: 17:42 (01:42 UTC)


TAF: eksik

4.000'den fazla havaalanı için hava durumu gözlemleri ve tahminleri (METAR ve TAF raporları).

Kullanılabilir istasyonlar harita üzerinde sarı ve kırmızı noktalarla gösterilir.

İstasyonun adını görmek için fareyi noktanın üzerinde gezdirin.

Sonrasında hava gözlem ve tahminlerini görmek için tıklayın.

Haritayı değiştirmek için: yaklaştırmak için siyah artı işaretli yeşil düğmeye ve uzaklaştırmak için de eksi işaretli düğmeye hızla tıklayın; bitişik haritalar için yeşil okları kullanın.


METAR-TAF: